Аэропорт
Худжанд (UTDL)

 UTDL / LBD
ЗЦ Центральная Азия
Душанбе (UTDD)
Душанбе (UTDD)
 40.21540, 69.69470  / 1450 ft

 UTDL 230030Z 08004MPS 5000 BR SCT006 BKN026 12/11 Q1012 R08/CLRD70 NOSIG RMK QBB200 QFE720/0960

UTDL_aip_1705
показать схемы

2019 © VATRUS division (Privacy Policy)